Map

Track Data

SID SEASON NUMBER BASIN SUBBASIN NAME ISO_TIME NATURE LAT LON WMO_WIND WMO_PRES WMO_AGENCY TRACK_TYPE DIST2LAND LANDFALL IFLAG USA_AGENCY USA_ATCF_ID USA_LAT USA_LON USA_RECORD USA_STATUS USA_WIND USA_PRES USA_SSHS USA_R34_NE USA_R34_SE USA_R34_SW USA_R34_NW USA_R50_NE USA_R50_SE USA_R50_SW USA_R50_NW USA_R64_NE USA_R64_SE USA_R64_SW USA_R64_NW USA_POCI USA_ROCI USA_RMW USA_EYE TOKYO_LAT TOKYO_LON TOKYO_GRADE TOKYO_WIND TOKYO_PRES TOKYO_R50_DIR TOKYO_R50_LONG TOKYO_R50_SHORT TOKYO_R30_DIR TOKYO_R30_LONG TOKYO_R30_SHORT TOKYO_LAND CMA_LAT CMA_LON CMA_CAT CMA_WIND CMA_PRES HKO_LAT HKO_LON HKO_CAT HKO_WIND HKO_PRES NEWDELHI_LAT NEWDELHI_LON NEWDELHI_GRADE NEWDELHI_WIND NEWDELHI_PRES NEWDELHI_CI NEWDELHI_DP NEWDELHI_POCI REUNION_LAT REUNION_LON REUNION_TYPE REUNION_WIND REUNION_PRES REUNION_TNUM REUNION_CI REUNION_RMW REUNION_R34_NE REUNION_R34_SE REUNION_R34_SW REUNION_R34_NW REUNION_R50_NE REUNION_R50_SE REUNION_R50_SW REUNION_R50_NW REUNION_R64_NE REUNION_R64_SE REUNION_R64_SW REUNION_R64_NW BOM_LAT BOM_LON BOM_TYPE BOM_WIND BOM_PRES BOM_TNUM BOM_CI BOM_RMW BOM_R34_NE BOM_R34_SE BOM_R34_SW BOM_R34_NW BOM_R50_NE BOM_R50_SE BOM_R50_SW BOM_R50_NW BOM_R64_NE BOM_R64_SE BOM_R64_SW BOM_R64_NW BOM_ROCI BOM_POCI BOM_EYE BOM_POS_METHOD BOM_PRES_METHOD NADI_LAT NADI_LON NADI_CAT NADI_WIND NADI_PRES WELLINGTON_LAT WELLINGTON_LON WELLINGTON_WIND WELLINGTON_PRES DS824_LAT DS824_LON DS824_STAGE DS824_WIND DS824_PRES TD9636_LAT TD9636_LON TD9636_STAGE TD9636_WIND TD9636_PRES TD9635_LAT TD9635_LON TD9635_WIND TD9635_PRES TD9635_ROCI NEUMANN_LAT NEUMANN_LON NEUMANN_CLASS NEUMANN_WIND NEUMANN_PRES MLC_LAT MLC_LON MLC_CLASS MLC_WIND MLC_PRES USA_GUST BOM_GUST BOM_GUST_PER REUNION_GUST REUNION_GUST_PER USA_SEAHGT USA_SEARAD_NE USA_SEARAD_SE USA_SEARAD_SW USA_SEARAD_NW STORM_SPEED STORM_DIR
1965057S19166 1965 30 SP MM NOT_NAMED 1965-02-25 12:00:00 TS -19.1000 166.200 main 216 183 O________OO___ jtwc_sh SH331965 -19.1000 166.200 -1 -19.1000 166.200 TC -19.1000 166.200 1 11 159
1965057S19166 1965 30 SP MM NOT_NAMED 1965-02-25 15:00:00 TS -19.6119 166.405 main 183 160 P________PP___ SH331965 -19.6200 166.397 -1 -19.6200 166.397 TC -19.5956 166.420 1 11 159
1965057S19166 1965 30 SP MM NOT_NAMED 1965-02-25 18:00:00 TS -20.0876 166.611 main 160 133 O________OP___ jtwc_sh SH331965 -20.1000 166.600 -1 -20.1000 166.600 TC -20.0629 166.633 1 10 156
1965057S19166 1965 30 SP MM NOT_NAMED 1965-02-25 21:00:00 TS -20.4929 166.815 main 133 118 P________PP___ SH331965 -20.5025 166.808 -1 -20.5025 166.808 TC -20.4737 166.830 1 8 153
1965057S19166 1965 30 SP MM NOT_NAMED 1965-02-26 00:00:00 TS -20.8000 167.000 main 118 106 O________OO_O_ jtwc_sh SH331965 -20.8000 167.000 -1 -20.8000 167.000 TC -20.8000 167.000 1 -20.8000 167.000 TC 25 6 148
1965057S19166 1965 30 SP MM NOT_NAMED 1965-02-26 03:00:00 TS -20.9934 167.147 main 106 106 P________PP_P_ SH331965 -20.9875 167.165 -1 -20.9875 167.165 TC -21.0232 167.139 1 -20.9575 167.090 TC 27 4 142
1965057S19166 1965 30 SP MM NOT_NAMED 1965-02-26 06:00:00 TS -21.1166 167.269 main 113 106 O________OP_O_ jtwc_sh SH331965 -21.1000 167.300 -1 -21.1000 167.300 TC -21.1622 167.258 1 -21.1000 167.200 TC 30 3 136
1965057S19166 1965 30 SP MM NOT_NAMED 1965-02-26 09:00:00 TS -21.2225 167.379 main 113 103 P________PP_P_ SH331965 -21.2150 167.400 -1 -21.2150 167.400 TC -21.2451 167.373 1 -21.2150 167.342 TC 30 3 130
1965057S19166 1965 30 SP MM NOT_NAMED 1965-02-26 12:00:00 TS -21.3000 167.500 main 108 106 O________OO_O_ jtwc_sh SH331965 -21.3000 167.500 -1 -21.3000 167.500 TC -21.3000 167.500 1 -21.3000 167.500 TC 30 3 119
1965057S19166 1965 30 SP MM NOT_NAMED 1965-02-26 15:00:00 TS -21.3559 167.636 main 106 106 P________PP_P_ SH331965 -21.3575 167.635 -1 -21.3575 167.635 TC -21.3510 167.633 1 -21.3575 167.643 TC 30 3 109
1965057S19166 1965 30 SP MM NOT_NAMED 1965-02-26 18:00:00 TS -21.3961 167.796 main 121 121 O________OP_O_ jtwc_sh SH331965 -21.4000 167.800 -1 -21.4000 167.800 TC -21.3846 167.783 1 -21.4000 167.800 TC 30 3 104
1965057S19166 1965 30 SP MM NOT_NAMED 1965-02-26 21:00:00 TS -21.4327 167.973 main 136 136 P________PP_P_ SH331965 -21.4349 167.978 -1 -21.4349 167.978 TC -21.4259 167.967 1 -21.4349 167.970 TC 30 4 105
1965057S19166 1965 30 SP MM NOT_NAMED 1965-02-27 00:00:00 TS -21.5000 168.200 main 146 146 O________OO_O_ jtwc_sh SH331965 -21.5000 168.200 -1 -21.5000 168.200 TC -21.5000 168.200 1 -21.5000 168.200 TC 30 5 112
1965057S19166 1965 30 SP MM NOT_NAMED 1965-02-27 03:00:00 TS -21.6273 168.487 main 168 164 P________PP_P_ SH331965 -21.6274 168.470 -1 -21.6274 168.470 TC -21.6267 168.480 1 -21.6275 168.527 TC 30 7 117
1965057S19166 1965 30 SP MM NOT_NAMED 1965-02-27 06:00:00 TS -21.7974 168.828 main 190 190 O________OP_O_ jtwc_sh SH331965 -21.8000 168.800 -1 -21.8000 168.800 TC -21.7897 168.810 1 -21.8000 168.900 TC 30 7 119
1965057S19166 1965 30 SP MM NOT_NAMED 1965-02-27 09:00:00 TS -21.9844 169.192 main 227 227 P________PP_P_ SH331965 -21.9849 169.178 -1 -21.9849 169.178 TC -21.9828 169.186 1 -21.9848 169.228 TC 30 8 119
1965057S19166 1965 30 SP MM NOT_NAMED 1965-02-27 12:00:00 TS -22.2000 169.600 main 267 267 O________OO_O_ jtwc_sh SH331965 -22.2000 169.600 -1 -22.2000 169.600 TC -22.2000 169.600 1 -22.2000 169.600 TC 30 9 120
1965057S19166 1965 30 SP MM NOT_NAMED 1965-02-27 15:00:00 TS -22.4407 170.050 main 318 318 P________PP_P_ SH331965 -22.4424 170.035 -1 -22.4424 170.035 TC -22.4354 170.046 1 -22.4426 170.085 TC 30 10 120
1965057S19166 1965 30 SP MM NOT_NAMED 1965-02-27 18:00:00 TS -22.6959 170.529 main 362 362 O________OP_O_ jtwc_sh SH331965 -22.7000 170.500 -1 -22.7000 170.500 TC -22.6838 170.516 1 -22.7000 170.600 TC 30 10 120
1965057S19166 1965 30 SP MM NOT_NAMED 1965-02-27 21:00:00 TS -22.9496 171.014 main 415 415 P________PP_P_ SH331965 -22.9528 170.992 -1 -22.9528 170.992 TC -22.9403 171.003 1 -22.9526 171.067 TC 27 10 119
1965057S19166 1965 30 SP MM NOT_NAMED 1965-02-28 00:00:00 TS -23.2000 171.500 main 472 O________OO_O_ jtwc_sh SH331965 -23.2000 171.500 -1 -23.2000 171.500 TC -23.2000 171.500 1 -23.2000 171.500 TC 25 10 119

Digital Typhoon Data and Search

About IBTrACS Database

This database is a web-friendly format of International Best Track Archive for Climate Stewardship (IBTrACS), a global best track data archive curated by NOAA dating back to 1842.

Updated: 2021-11-26